sensor_id;sensor_type;location;lat;lon;timestamp;pressure;altitude;pressure_sealevel;temperature;humidity
26112;BME280;13829;48.990;8.346;2023-06-10T00:00:40;100014.09;;;18.66;83.73
26112;BME280;13829;48.990;8.346;2023-06-10T00:03:08;100016.53;;;18.73;80.59
26112;BME280;13829;48.990;8.346;2023-06-10T00:05:35;100010.63;;;18.90;79.74
26112;BME280;13829;48.990;8.346;2023-06-10T00:08:06;100011.94;;;19.04;79.42
26112;BME280;13829;48.990;8.346;2023-06-10T00:10:33;100004.63;;;19.09;78.16
26112;BME280;13829;48.990;8.346;2023-06-10T00:13:02;100010.66;;;18.89;78.46
26112;BME280;13829;48.990;8.346;2023-06-10T00:15:30;100007.88;;;18.92;77.14
26112;BME280;13829;48.990;8.346;2023-06-10T00:17:57;100015.94;;;18.90;76.47
26112;BME280;13829;48.990;8.346;2023-06-10T00:20:24;100008.78;;;18.93;75.94
26112;BME280;13829;48.990;8.346;2023-06-10T00:22:51;100020.44;;;19.14;74.51
26112;BME280;13829;48.990;8.346;2023-06-10T00:25:20;100006.31;;;19.12;74.95
26112;BME280;13829;48.990;8.346;2023-06-10T00:27:47;100008.78;;;19.16;73.79
26112;BME280;13829;48.990;8.346;2023-06-10T00:30:14;100013.81;;;19.24;73.34
26112;BME280;13829;48.990;8.346;2023-06-10T00:32:41;100013.16;;;19.43;71.12
26112;BME280;13829;48.990;8.346;2023-06-10T00:35:08;100010.09;;;19.53;70.51
26112;BME280;13829;48.990;8.346;2023-06-10T00:37:35;100012.44;;;19.61;70.01
26112;BME280;13829;48.990;8.346;2023-06-10T00:40:03;100010.47;;;19.43;70.92
26112;BME280;13829;48.990;8.346;2023-06-10T00:42:32;100016.59;;;19.68;69.26
26112;BME280;13829;48.990;8.346;2023-06-10T00:44:59;100009.44;;;19.47;69.81
26112;BME280;13829;48.990;8.346;2023-06-10T00:47:27;100000.72;;;19.42;69.82
26112;BME280;13829;48.990;8.346;2023-06-10T00:49:54;99996.97;;;19.23;70.80
26112;BME280;13829;48.990;8.346;2023-06-10T00:52:25;100005.13;;;19.19;71.21
26112;BME280;13829;48.990;8.346;2023-06-10T00:54:54;100004.22;;;19.20;73.07
26112;BME280;13829;48.990;8.346;2023-06-10T00:57:21;99996.44;;;19.14;74.45
26112;BME280;13829;48.990;8.346;2023-06-10T00:59:50;100000.59;;;18.97;74.12
26112;BME280;13829;48.990;8.346;2023-06-10T01:02:17;100002.88;;;18.83;74.67
26112;BME280;13829;48.990;8.346;2023-06-10T01:04:44;100001.25;;;18.79;75.00
26112;BME280;13829;48.990;8.346;2023-06-10T01:07:22;100006.13;;;18.93;75.51
26112;BME280;13829;48.990;8.346;2023-06-10T01:09:59;99997.00;;;18.98;75.52
26112;BME280;13829;48.990;8.346;2023-06-10T01:12:34;99998.19;;;18.89;77.26
26112;BME280;13829;48.990;8.346;2023-06-10T01:15:08;100009.94;;;18.84;77.18
26112;BME280;13829;48.990;8.346;2023-06-10T01:17:54;100000.78;;;18.66;77.83
26112;BME280;13829;48.990;8.346;2023-06-10T01:20:21;99996.34;;;18.66;79.41
26112;BME280;13829;48.990;8.346;2023-06-10T01:22:49;99996.78;;;18.54;81.41
26112;BME280;13829;48.990;8.346;2023-06-10T01:25:20;100000.94;;;18.36;83.14
26112;BME280;13829;48.990;8.346;2023-06-10T01:27:58;100000.31;;;18.28;82.14
26112;BME280;13829;48.990;8.346;2023-06-10T01:30:32;99997.72;;;18.26;83.89
26112;BME280;13829;48.990;8.346;2023-06-10T01:33:06;100006.19;;;18.11;82.90
26112;BME280;13829;48.990;8.346;2023-06-10T01:35:35;100011.41;;;18.14;81.74
26112;BME280;13829;48.990;8.346;2023-06-10T01:38:06;100015.81;;;18.15;80.85
26112;BME280;13829;48.990;8.346;2023-06-10T01:40:34;100014.84;;;18.17;82.02
26112;BME280;13829;48.990;8.346;2023-06-10T01:43:02;100005.88;;;18.20;82.03
26112;BME280;13829;48.990;8.346;2023-06-10T01:45:29;100009.59;;;18.16;81.38
26112;BME280;13829;48.990;8.346;2023-06-10T01:47:56;100009.72;;;18.11;80.84
26112;BME280;13829;48.990;8.346;2023-06-10T01:50:23;100016.84;;;18.11;80.42
26112;BME280;13829;48.990;8.346;2023-06-10T01:52:50;100009.44;;;18.20;80.95
26112;BME280;13829;48.990;8.346;2023-06-10T01:55:19;100008.56;;;18.20;82.52
26112;BME280;13829;48.990;8.346;2023-06-10T01:57:46;100012.13;;;18.19;84.08
26112;BME280;13829;48.990;8.346;2023-06-10T02:00:14;100013.66;;;17.99;82.76
26112;BME280;13829;48.990;8.346;2023-06-10T02:02:41;100012.31;;;18.13;82.54
26112;BME280;13829;48.990;8.346;2023-06-10T02:05:08;100011.53;;;18.11;81.74
26112;BME280;13829;48.990;8.346;2023-06-10T02:07:35;100007.31;;;18.03;84.98
26112;BME280;13829;48.990;8.346;2023-06-10T02:10:04;100019.13;;;17.95;86.42
26112;BME280;13829;48.990;8.346;2023-06-10T02:12:33;100022.13;;;17.82;88.84
26112;BME280;13829;48.990;8.346;2023-06-10T02:15:00;100021.50;;;17.74;90.42
26112;BME280;13829;48.990;8.346;2023-06-10T02:17:27;100020.66;;;17.73;91.04
26112;BME280;13829;48.990;8.346;2023-06-10T02:19:54;100027.88;;;17.68;89.80
26112;BME280;13829;48.990;8.346;2023-06-10T02:22:23;100029.44;;;17.75;87.47
26112;BME280;13829;48.990;8.346;2023-06-10T02:24:51;100031.19;;;17.76;86.38
26112;BME280;13829;48.990;8.346;2023-06-10T02:27:18;100032.03;;;17.77;85.60
26112;BME280;13829;48.990;8.346;2023-06-10T02:29:46;100037.03;;;17.88;83.59
26112;BME280;13829;48.990;8.346;2023-06-10T02:32:13;100034.56;;;17.82;83.42
26112;BME280;13829;48.990;8.346;2023-06-10T02:34:40;100039.03;;;17.81;82.48
26112;BME280;13829;48.990;8.346;2023-06-10T02:37:09;100041.34;;;17.92;81.29
26112;BME280;13829;48.990;8.346;2023-06-10T02:39:36;100042.75;;;18.05;79.89
26112;BME280;13829;48.990;8.346;2023-06-10T02:42:04;100048.84;;;18.09;79.61
26112;BME280;13829;48.990;8.346;2023-06-10T02:44:32;100052.47;;;18.06;79.68
26112;BME280;13829;48.990;8.346;2023-06-10T02:47:00;100048.88;;;18.07;79.69
26112;BME280;13829;48.990;8.346;2023-06-10T02:49:27;100057.31;;;17.92;80.05
26112;BME280;13829;48.990;8.346;2023-06-10T02:51:54;100058.28;;;17.89;79.76
26112;BME280;13829;48.990;8.346;2023-06-10T02:54:22;100050.53;;;17.82;80.54
26112;BME280;13829;48.990;8.346;2023-06-10T02:56:51;100059.41;;;17.81;80.78
26112;BME280;13829;48.990;8.346;2023-06-10T02:59:18;100057.88;;;17.73;80.51
26112;BME280;13829;48.990;8.346;2023-06-10T03:01:46;100062.63;;;17.92;80.18
26112;BME280;13829;48.990;8.346;2023-06-10T03:04:14;100057.47;;;17.86;80.61
26112;BME280;13829;48.990;8.346;2023-06-10T03:06:41;100067.63;;;17.73;82.08
26112;BME280;13829;48.990;8.346;2023-06-10T03:09:09;100065.31;;;17.62;84.57
26112;BME280;13829;48.990;8.346;2023-06-10T03:11:36;100066.28;;;17.59;84.61
26112;BME280;13829;48.990;8.346;2023-06-10T03:14:03;100076.38;;;17.47;84.55
26112;BME280;13829;48.990;8.346;2023-06-10T03:16:30;100070.16;;;17.48;84.57
26112;BME280;13829;48.990;8.346;2023-06-10T03:18:57;100072.16;;;17.39;84.70
26112;BME280;13829;48.990;8.346;2023-06-10T03:21:26;100075.84;;;17.34;84.80
26112;BME280;13829;48.990;8.346;2023-06-10T03:23:53;100072.16;;;17.39;84.08
26112;BME280;13829;48.990;8.346;2023-06-10T03:26:20;100076.53;;;17.40;84.42
26112;BME280;13829;48.990;8.346;2023-06-10T03:28:47;100073.16;;;17.35;84.66
26112;BME280;13829;48.990;8.346;2023-06-10T03:31:15;100077.34;;;17.44;83.41
26112;BME280;13829;48.990;8.346;2023-06-10T03:33:43;100073.06;;;17.38;84.32
26112;BME280;13829;48.990;8.346;2023-06-10T03:36:10;100082.81;;;17.38;84.56
26112;BME280;13829;48.990;8.346;2023-06-10T03:38:38;100083.53;;;17.44;84.38
26112;BME280;13829;48.990;8.346;2023-06-10T03:41:05;100079.03;;;17.47;84.30
26112;BME280;13829;48.990;8.346;2023-06-10T03:43:32;100083.72;;;17.38;84.57
26112;BME280;13829;48.990;8.346;2023-06-10T03:45:59;100074.03;;;17.36;85.18
26112;BME280;13829;48.990;8.346;2023-06-10T03:48:26;100082.81;;;17.39;84.21
26112;BME280;13829;48.990;8.346;2023-06-10T03:50:53;100078.47;;;17.35;85.33
26112;BME280;13829;48.990;8.346;2023-06-10T03:53:20;100083.97;;;17.29;85.63
26112;BME280;13829;48.990;8.346;2023-06-10T03:55:48;100080.31;;;17.33;85.32
26112;BME280;13829;48.990;8.346;2023-06-10T03:58:15;100079.41;;;17.34;85.37
26112;BME280;13829;48.990;8.346;2023-06-10T04:00:43;100087.09;;;17.43;84.33
26112;BME280;13829;48.990;8.346;2023-06-10T04:03:11;100086.94;;;17.50;83.92
26112;BME280;13829;48.990;8.346;2023-06-10T04:05:40;100090.78;;;17.39;84.30
26112;BME280;13829;48.990;8.346;2023-06-10T04:08:08;100083.03;;;17.32;84.78
26112;BME280;13829;48.990;8.346;2023-06-10T04:10:35;100089.81;;;17.42;85.21
26112;BME280;13829;48.990;8.346;2023-06-10T04:13:03;100090.78;;;17.39;84.06
26112;BME280;13829;48.990;8.346;2023-06-10T04:15:30;100093.94;;;17.82;81.17
26112;BME280;13829;48.990;8.346;2023-06-10T04:17:59;100094.91;;;17.80;81.78
26112;BME280;13829;48.990;8.346;2023-06-10T04:20:27;100096.47;;;17.87;80.55
26112;BME280;13829;48.990;8.346;2023-06-10T04:22:54;100096.03;;;17.72;81.55
26112;BME280;13829;48.990;8.346;2023-06-10T04:25:21;100101.66;;;17.91;80.43
26112;BME280;13829;48.990;8.346;2023-06-10T04:27:48;100109.66;;;17.91;80.86
26112;BME280;13829;48.990;8.346;2023-06-10T04:30:17;100104.84;;;18.04;80.27
26112;BME280;13829;48.990;8.346;2023-06-10T04:32:44;100106.13;;;18.21;79.01
26112;BME280;13829;48.990;8.346;2023-06-10T04:35:12;100105.63;;;18.08;79.67
26112;BME280;13829;48.990;8.346;2023-06-10T04:37:40;100107.56;;;18.31;78.37
26112;BME280;13829;48.990;8.346;2023-06-10T04:40:08;100105.75;;;18.33;77.42
26112;BME280;13829;48.990;8.346;2023-06-10T04:42:36;100109.00;;;18.41;77.42
26112;BME280;13829;48.990;8.346;2023-06-10T04:45:05;100112.69;;;18.37;77.21
26112;BME280;13829;48.990;8.346;2023-06-10T04:47:33;100117.78;;;18.45;76.74
26112;BME280;13829;48.990;8.346;2023-06-10T04:50:01;100120.34;;;18.48;76.15
26112;BME280;13829;48.990;8.346;2023-06-10T04:52:29;100124.34;;;18.62;75.57
26112;BME280;13829;48.990;8.346;2023-06-10T04:54:57;100118.94;;;18.63;75.42
26112;BME280;13829;48.990;8.346;2023-06-10T04:57:24;100123.09;;;18.73;74.59
26112;BME280;13829;48.990;8.346;2023-06-10T04:59:52;100121.69;;;18.90;73.37
26112;BME280;13829;48.990;8.346;2023-06-10T05:02:19;100123.94;;;18.74;73.46
26112;BME280;13829;48.990;8.346;2023-06-10T05:04:47;100123.94;;;18.74;73.59
26112;BME280;13829;48.990;8.346;2023-06-10T05:07:14;100118.56;;;18.75;73.05
26112;BME280;13829;48.990;8.346;2023-06-10T05:09:41;100120.16;;;18.81;73.11
26112;BME280;13829;48.990;8.346;2023-06-10T05:12:09;100118.16;;;18.88;73.21
26112;BME280;13829;48.990;8.346;2023-06-10T05:14:36;100116.88;;;19.00;72.39
26112;BME280;13829;48.990;8.346;2023-06-10T05:17:04;100124.22;;;18.93;72.81
26112;BME280;13829;48.990;8.346;2023-06-10T05:19:32;100130.28;;;19.23;71.34
26112;BME280;13829;48.990;8.346;2023-06-10T05:22:00;100131.38;;;19.18;70.80
26112;BME280;13829;48.990;8.346;2023-06-10T05:24:28;100141.16;;;19.17;70.96
26112;BME280;13829;48.990;8.346;2023-06-10T05:26:55;100136.31;;;19.29;70.47
26112;BME280;13829;48.990;8.346;2023-06-10T05:29:22;100139.97;;;19.26;70.95
26112;BME280;13829;48.990;8.346;2023-06-10T05:31:49;100135.88;;;19.41;70.09
26112;BME280;13829;48.990;8.346;2023-06-10T05:34:16;100133.28;;;19.39;69.32
26112;BME280;13829;48.990;8.346;2023-06-10T05:36:43;100138.13;;;19.53;69.54
26112;BME280;13829;48.990;8.346;2023-06-10T05:39:12;100140.44;;;19.37;68.51
26112;BME280;13829;48.990;8.346;2023-06-10T05:41:38;100138.47;;;19.43;68.25
26112;BME280;13829;48.990;8.346;2023-06-10T05:44:06;100144.44;;;19.51;68.20
26112;BME280;13829;48.990;8.346;2023-06-10T05:46:32;100138.41;;;19.69;67.77
26112;BME280;13829;48.990;8.346;2023-06-10T05:48:59;100141.47;;;19.84;67.45
26112;BME280;13829;48.990;8.346;2023-06-10T05:51:26;100143.38;;;20.04;66.50
26112;BME280;13829;48.990;8.346;2023-06-10T05:53:54;100143.41;;;20.02;68.10
26112;BME280;13829;48.990;8.346;2023-06-10T05:56:22;100146.75;;;20.31;65.74
26112;BME280;13829;48.990;8.346;2023-06-10T05:58:51;100143.78;;;20.17;64.47
26112;BME280;13829;48.990;8.346;2023-06-10T06:01:18;100145.38;;;20.21;65.10
26112;BME280;13829;48.990;8.346;2023-06-10T06:03:45;100145.16;;;20.27;64.95
26112;BME280;13829;48.990;8.346;2023-06-10T06:06:12;100147.50;;;20.35;65.32
26112;BME280;13829;48.990;8.346;2023-06-10T06:08:39;100142.69;;;20.45;64.80
26112;BME280;13829;48.990;8.346;2023-06-10T06:11:06;100148.47;;;20.56;64.60
26112;BME280;13829;48.990;8.346;2023-06-10T06:13:34;100149.47;;;20.96;62.85
26112;BME280;13829;48.990;8.346;2023-06-10T06:16:01;100151.06;;;21.43;60.66
26112;BME280;13829;48.990;8.346;2023-06-10T06:18:28;100139.44;;;22.22;57.78
26112;BME280;13829;48.990;8.346;2023-06-10T06:20:55;100142.81;;;23.18;53.97
26112;BME280;13829;48.990;8.346;2023-06-10T06:23:22;100146.44;;;24.50;49.92
26112;BME280;13829;48.990;8.346;2023-06-10T06:25:49;100140.81;;;25.31;47.88
26112;BME280;13829;48.990;8.346;2023-06-10T06:28:15;100143.88;;;26.13;44.80
26112;BME280;13829;48.990;8.346;2023-06-10T06:30:45;100145.59;;;26.69;42.50
26112;BME280;13829;48.990;8.346;2023-06-10T06:33:13;100138.47;;;27.48;40.95
26112;BME280;13829;48.990;8.346;2023-06-10T06:35:40;100145.59;;;27.75;40.49
26112;BME280;13829;48.990;8.346;2023-06-10T06:38:06;100145.41;;;27.78;40.12
26112;BME280;13829;48.990;8.346;2023-06-10T06:40:33;100145.38;;;28.04;39.53
26112;BME280;13829;48.990;8.346;2023-06-10T06:43:00;100139.09;;;28.17;39.97
26112;BME280;13829;48.990;8.346;2023-06-10T06:45:28;100142.31;;;30.00;36.48
26112;BME280;13829;48.990;8.346;2023-06-10T06:47:56;100146.63;;;29.91;36.56
26112;BME280;13829;48.990;8.346;2023-06-10T06:50:23;100143.25;;;30.33;35.26
26112;BME280;13829;48.990;8.346;2023-06-10T06:52:50;100145.09;;;30.21;36.18
26112;BME280;13829;48.990;8.346;2023-06-10T06:55:17;100142.09;;;31.23;34.86
26112;BME280;13829;48.990;8.346;2023-06-10T06:57:44;100147.25;;;31.78;33.64
26112;BME280;13829;48.990;8.346;2023-06-10T07:00:12;100147.38;;;31.25;33.84
26112;BME280;13829;48.990;8.346;2023-06-10T07:02:39;100144.19;;;31.93;33.36
26112;BME280;13829;48.990;8.346;2023-06-10T07:05:08;100146.41;;;31.78;33.08
26112;BME280;13829;48.990;8.346;2023-06-10T07:07:35;100143.94;;;32.06;32.92
26112;BME280;13829;48.990;8.346;2023-06-10T07:10:02;100142.25;;;33.33;31.05
26112;BME280;13829;48.990;8.346;2023-06-10T07:12:29;100146.44;;;32.79;31.24
26112;BME280;13829;48.990;8.346;2023-06-10T07:14:56;100144.09;;;32.55;31.90
26112;BME280;13829;48.990;8.346;2023-06-10T07:17:23;100154.81;;;32.06;32.16
26112;BME280;13829;48.990;8.346;2023-06-10T07:19:50;100147.75;;;32.34;32.15
26112;BME280;13829;48.990;8.346;2023-06-10T07:22:19;100146.66;;;32.06;32.96
26112;BME280;13829;48.990;8.346;2023-06-10T07:24:46;100153.41;;;32.72;32.74
26112;BME280;13829;48.990;8.346;2023-06-10T07:27:12;100155.84;;;32.14;32.19
26112;BME280;13829;48.990;8.346;2023-06-10T07:29:39;100150.94;;;32.49;32.38
26112;BME280;13829;48.990;8.346;2023-06-10T07:32:07;100151.56;;;31.81;34.66
26112;BME280;13829;48.990;8.346;2023-06-10T07:34:35;100152.41;;;31.29;35.86
26112;BME280;13829;48.990;8.346;2023-06-10T07:37:02;100146.91;;;30.87;35.78
26112;BME280;13829;48.990;8.346;2023-06-10T07:39:30;100138.88;;;31.39;35.99
26112;BME280;13829;48.990;8.346;2023-06-10T07:41:57;100142.00;;;31.13;35.30
26112;BME280;13829;48.990;8.346;2023-06-10T07:44:24;100150.97;;;30.93;36.50
26112;BME280;13829;48.990;8.346;2023-06-10T07:46:51;100148.53;;;30.57;36.08
26112;BME280;13829;48.990;8.346;2023-06-10T07:49:18;100149.88;;;31.37;35.02
26112;BME280;13829;48.990;8.346;2023-06-10T07:51:45;100140.94;;;31.47;35.19
26112;BME280;13829;48.990;8.346;2023-06-10T07:54:12;100142.84;;;31.56;34.98
26112;BME280;13829;48.990;8.346;2023-06-10T07:56:40;100147.75;;;31.20;35.04
26112;BME280;13829;48.990;8.346;2023-06-10T07:59:07;100151.72;;;30.83;35.35
26112;BME280;13829;48.990;8.346;2023-06-10T08:01:34;100141.50;;;30.54;36.63
26112;BME280;13829;48.990;8.346;2023-06-10T08:04:04;100136.28;;;31.37;35.64
26112;BME280;13829;48.990;8.346;2023-06-10T08:06:31;100147.28;;;30.38;36.65
26112;BME280;13829;48.990;8.346;2023-06-10T08:09:00;100143.00;;;30.36;36.78
26112;BME280;13829;48.990;8.346;2023-06-10T08:11:31;100141.72;;;31.37;36.40
26112;BME280;13829;48.990;8.346;2023-06-10T08:14:00;100140.88;;;31.16;35.54
26112;BME280;13829;48.990;8.346;2023-06-10T08:16:27;100143.91;;;30.69;35.87
26112;BME280;13829;48.990;8.346;2023-06-10T08:18:53;100137.97;;;31.08;36.54
26112;BME280;13829;48.990;8.346;2023-06-10T08:21:20;100132.16;;;31.95;35.28
26112;BME280;13829;48.990;8.346;2023-06-10T08:23:47;100139.34;;;31.65;34.74
26112;BME280;13829;48.990;8.346;2023-06-10T08:26:14;100130.41;;;31.84;34.81
26112;BME280;13829;48.990;8.346;2023-06-10T08:28:41;100138.44;;;31.86;34.32
26112;BME280;13829;48.990;8.346;2023-06-10T08:31:09;100133.53;;;31.28;35.38
26112;BME280;13829;48.990;8.346;2023-06-10T08:33:36;100133.28;;;30.98;35.41
26112;BME280;13829;48.990;8.346;2023-06-10T08:36:04;100125.97;;;30.78;36.20
26112;BME280;13829;48.990;8.346;2023-06-10T08:38:31;100126.41;;;31.36;34.79
26112;BME280;13829;48.990;8.346;2023-06-10T08:41:00;100132.03;;;31.14;35.06
26112;BME280;13829;48.990;8.346;2023-06-10T08:43:37;100128.13;;;30.63;34.99
26112;BME280;13829;48.990;8.346;2023-06-10T08:46:10;100116.53;;;30.17;35.63
26112;BME280;13829;48.990;8.346;2023-06-10T08:48:43;100121.59;;;30.10;35.42
26112;BME280;13829;48.990;8.346;2023-06-10T08:51:11;100123.44;;;30.09;35.90
26112;BME280;13829;48.990;8.346;2023-06-10T08:53:49;100128.53;;;30.47;36.71
26112;BME280;13829;48.990;8.346;2023-06-10T08:56:18;100125.41;;;30.19;36.86
26112;BME280;13829;48.990;8.346;2023-06-10T08:58:47;100132.78;;;29.71;37.36
26112;BME280;13829;48.990;8.346;2023-06-10T09:01:16;100122.19;;;29.57;37.98
26112;BME280;13829;48.990;8.346;2023-06-10T09:03:44;100118.25;;;29.50;37.65
26112;BME280;13829;48.990;8.346;2023-06-10T09:06:11;100118.44;;;29.24;38.66
26112;BME280;13829;48.990;8.346;2023-06-10T09:08:39;100119.47;;;29.45;39.78
26112;BME280;13829;48.990;8.346;2023-06-10T09:11:06;100111.13;;;29.94;39.98
26112;BME280;13829;48.990;8.346;2023-06-10T09:13:33;100106.16;;;29.88;37.74
26112;BME280;13829;48.990;8.346;2023-06-10T09:16:00;100111.25;;;29.58;37.47
26112;BME280;13829;48.990;8.346;2023-06-10T09:18:29;100108.53;;;29.47;38.59
26112;BME280;13829;48.990;8.346;2023-06-10T09:20:56;100113.81;;;29.60;38.12
26112;BME280;13829;48.990;8.346;2023-06-10T09:23:24;100108.25;;;29.39;38.96
26112;BME280;13829;48.990;8.346;2023-06-10T09:25:57;100103.63;;;29.17;38.91
26112;BME280;13829;48.990;8.346;2023-06-10T09:28:25;100117.38;;;28.91;39.03
26112;BME280;13829;48.990;8.346;2023-06-10T09:31:04;100113.09;;;28.75;38.92
26112;BME280;13829;48.990;8.346;2023-06-10T09:33:33;100113.88;;;28.77;39.91
26112;BME280;13829;48.990;8.346;2023-06-10T09:36:03;100107.72;;;28.62;39.95
26112;BME280;13829;48.990;8.346;2023-06-10T09:38:32;100103.50;;;29.07;40.49
26112;BME280;13829;48.990;8.346;2023-06-10T09:40:59;100107.78;;;28.98;38.89
26112;BME280;13829;48.990;8.346;2023-06-10T09:43:43;100105.09;;;29.09;39.37
26112;BME280;13829;48.990;8.346;2023-06-10T09:46:18;100103.38;;;28.73;39.59
26112;BME280;13829;48.990;8.346;2023-06-10T09:48:48;100104.00;;;28.76;39.71
26112;BME280;13829;48.990;8.346;2023-06-10T09:51:15;100100.16;;;28.68;39.41
26112;BME280;13829;48.990;8.346;2023-06-10T09:53:47;100102.50;;;28.24;40.17
26112;BME280;13829;48.990;8.346;2023-06-10T09:56:15;100107.53;;;27.91;41.27
26112;BME280;13829;48.990;8.346;2023-06-10T09:58:42;100098.13;;;27.84;41.37
26112;BME280;13829;48.990;8.346;2023-06-10T10:01:13;100095.63;;;27.94;41.73
26112;BME280;13829;48.990;8.346;2023-06-10T10:03:47;100099.69;;;28.25;42.06
26112;BME280;13829;48.990;8.346;2023-06-10T10:06:16;100083.22;;;28.28;41.26
26112;BME280;13829;48.990;8.346;2023-06-10T10:08:43;100104.81;;;28.04;41.38
26112;BME280;13829;48.990;8.346;2023-06-10T10:11:11;100095.03;;;27.77;41.47
26112;BME280;13829;48.990;8.346;2023-06-10T10:13:39;100091.56;;;27.75;42.28
26112;BME280;13829;48.990;8.346;2023-06-10T10:16:11;100102.59;;;27.72;41.85
26112;BME280;13829;48.990;8.346;2023-06-10T10:18:47;100095.13;;;27.37;42.56
26112;BME280;13829;48.990;8.346;2023-06-10T10:21:22;100105.53;;;27.43;43.11
26112;BME280;13829;48.990;8.346;2023-06-10T10:23:58;100105.81;;;27.26;42.08
26112;BME280;13829;48.990;8.346;2023-06-10T10:26:29;100100.53;;;27.11;42.87
26112;BME280;13829;48.990;8.346;2023-06-10T10:29:10;100084.56;;;27.34;42.39
26112;BME280;13829;48.990;8.346;2023-06-10T10:31:39;100090.84;;;27.47;42.64
26112;BME280;13829;48.990;8.346;2023-06-10T10:34:16;100094.53;;;27.46;42.32
26112;BME280;13829;48.990;8.346;2023-06-10T10:36:46;100086.41;;;27.59;41.39
26112;BME280;13829;48.990;8.346;2023-06-10T10:39:14;100082.28;;;27.66;41.50
26112;BME280;13829;48.990;8.346;2023-06-10T10:41:42;100093.94;;;27.80;42.97
26112;BME280;13829;48.990;8.346;2023-06-10T10:44:10;100090.91;;;27.85;41.39
26112;BME280;13829;48.990;8.346;2023-06-10T10:46:49;100087.59;;;27.68;41.05
26112;BME280;13829;48.990;8.346;2023-06-10T10:49:18;100092.91;;;27.57;41.51
26112;BME280;13829;48.990;8.346;2023-06-10T10:51:57;100074.09;;;27.42;41.50
26112;BME280;13829;48.990;8.346;2023-06-10T10:54:31;100083.94;;;27.43;41.36
26112;BME280;13829;48.990;8.346;2023-06-10T10:57:14;100079.31;;;27.45;41.08
26112;BME280;13829;48.990;8.346;2023-06-10T10:59:56;100068.06;;;27.52;41.72
26112;BME280;13829;48.990;8.346;2023-06-10T11:02:37;100075.16;;;27.53;40.46
26112;BME280;13829;48.990;8.346;2023-06-10T11:05:12;100067.53;;;27.46;40.22
26112;BME280;13829;48.990;8.346;2023-06-10T11:07:39;100074.88;;;27.44;41.72
26112;BME280;13829;48.990;8.346;2023-06-10T11:10:08;100059.56;;;27.69;42.90
26112;BME280;13829;48.990;8.346;2023-06-10T11:12:50;100059.84;;;27.90;41.98
26112;BME280;13829;48.990;8.346;2023-06-10T11:15:20;100054.81;;;27.86;42.90
26112;BME280;13829;48.990;8.346;2023-06-10T11:18:09;100062.91;;;27.86;41.28
26112;BME280;13829;48.990;8.346;2023-06-10T11:20:59;100052.75;;;27.76;41.32
26112;BME280;13829;48.990;8.346;2023-06-10T11:23:34;100060.22;;;27.73;41.53
26112;BME280;13829;48.990;8.346;2023-06-10T11:26:18;100058.94;;;27.78;40.58
26112;BME280;13829;48.990;8.346;2023-06-10T11:29:03;100057.88;;;27.68;41.37
26112;BME280;13829;48.990;8.346;2023-06-10T11:31:32;100057.69;;;27.45;41.34
26112;BME280;13829;48.990;8.346;2023-06-10T11:34:01;100054.03;;;27.46;41.84
26112;BME280;13829;48.990;8.346;2023-06-10T11:36:33;100062.09;;;27.59;41.91
26112;BME280;13829;48.990;8.346;2023-06-10T11:39:03;100047.84;;;27.44;41.65
26112;BME280;13829;48.990;8.346;2023-06-10T11:41:31;100056.38;;;27.38;42.19
26112;BME280;13829;48.990;8.346;2023-06-10T11:44:03;100041.91;;;27.52;41.46
26112;BME280;13829;48.990;8.346;2023-06-10T11:46:31;100048.94;;;27.42;41.22
26112;BME280;13829;48.990;8.346;2023-06-10T11:48:59;100048.59;;;27.59;40.58
26112;BME280;13829;48.990;8.346;2023-06-10T11:51:32;100050.31;;;27.47;40.22
26112;BME280;13829;48.990;8.346;2023-06-10T11:53:59;100054.41;;;27.66;40.73
26112;BME280;13829;48.990;8.346;2023-06-10T11:56:28;100048.31;;;27.75;40.45
26112;BME280;13829;48.990;8.346;2023-06-10T11:58:58;100049.16;;;27.89;40.11
26112;BME280;13829;48.990;8.346;2023-06-10T12:01:31;100053.16;;;27.83;39.72
26112;BME280;13829;48.990;8.346;2023-06-10T12:04:01;100057.72;;;27.82;38.63
26112;BME280;13829;48.990;8.346;2023-06-10T12:06:39;100055.25;;;27.79;38.57
26112;BME280;13829;48.990;8.346;2023-06-10T12:09:06;100052.13;;;27.73;39.16
26112;BME280;13829;48.990;8.346;2023-06-10T12:11:34;100050.38;;;27.85;39.73
26112;BME280;13829;48.990;8.346;2023-06-10T12:14:02;100053.25;;;27.94;39.69
26112;BME280;13829;48.990;8.346;2023-06-10T12:16:29;100049.66;;;28.07;39.24
26112;BME280;13829;48.990;8.346;2023-06-10T12:19:03;100056.25;;;28.03;39.23
26112;BME280;13829;48.990;8.346;2023-06-10T12:21:31;100054.34;;;28.05;39.18
26112;BME280;13829;48.990;8.346;2023-06-10T12:24:06;100044.34;;;28.18;40.48
26112;BME280;13829;48.990;8.346;2023-06-10T12:26:40;100042.13;;;28.23;38.30
26112;BME280;13829;48.990;8.346;2023-06-10T12:29:18;100037.31;;;28.15;39.77
26112;BME280;13829;48.990;8.346;2023-06-10T12:31:58;100028.75;;;28.22;38.52
26112;BME280;13829;48.990;8.346;2023-06-10T12:34:36;100038.84;;;28.31;36.67
26112;BME280;13829;48.990;8.346;2023-06-10T12:37:06;100031.50;;;28.33;38.16
26112;BME280;13829;48.990;8.346;2023-06-10T12:39:34;100031.91;;;28.15;37.33
26112;BME280;13829;48.990;8.346;2023-06-10T12:42:01;100037.63;;;28.24;39.03
26112;BME280;13829;48.990;8.346;2023-06-10T12:44:34;100031.22;;;28.25;37.90
26112;BME280;13829;48.990;8.346;2023-06-10T12:47:07;100028.81;;;28.09;37.28
26112;BME280;13829;48.990;8.346;2023-06-10T12:49:36;100030.09;;;28.16;37.79
26112;BME280;13829;48.990;8.346;2023-06-10T12:52:04;100034.22;;;28.09;36.78
26112;BME280;13829;48.990;8.346;2023-06-10T12:54:34;100028.59;;;27.99;36.28
26112;BME280;13829;48.990;8.346;2023-06-10T12:57:02;100014.06;;;28.13;36.73
26112;BME280;13829;48.990;8.346;2023-06-10T12:59:29;100021.84;;;28.18;37.18